Time;durP1;ratioP1;P1;durP2;ratioP2;P2;SDS_P1;SDS_P2;PMS_P1;PMS_P2;Temp;Humidity;BMP_temperature;BMP_pressure;BME280_temperature;BME280_humidity;BME280_pressure;Samples;Min_cycle;Max_cycle;Signal;HPM_P1;HPM_P2
2022/06/28 00:01:08;;;;;;;1.80;1.38;;;;;;;;;;4970787;28;20025;-62
2022/06/28 00:03:34;;;;;;;1.98;1.70;;;;;;;;;;4971098;28;20048;-65
2022/06/28 00:05:59;;;;;;;1.58;1.30;;;;;;;;;;4971037;28;20469;-62
2022/06/28 00:08:24;;;;;;;1.60;1.50;;;;;;;;;;4970194;28;20348;-62
2022/06/28 00:10:50;;;;;;;3.30;1.90;;;;;;;;;;4970810;28;20451;-62
2022/06/28 00:13:15;;;;;;;3.65;1.58;;;;;;;;;;4971479;28;20465;-63
2022/06/28 00:18:25;;;;;;;2.03;1.58;;;;;;;;;;4971494;28;20487;-62
2022/06/28 00:20:50;;;;;;;2.15;1.67;;;;;;;;;;4970527;28;20419;-63
2022/06/28 00:23:15;;;;;;;3.72;1.50;;;;;;;;;;4970278;28;20444;-62
2022/06/28 00:25:41;;;;;;;6.05;1.30;;;;;;;;;;4970321;28;20131;-62
2022/06/28 00:28:06;;;;;;;2.17;1.67;;;;;;;;;;4970385;28;20443;-62
2022/06/28 00:30:32;;;;;;;1.92;1.63;;;;;;;;;;4972188;28;20033;-62
2022/06/28 00:32:57;;;;;;;1.45;1.33;;;;;;;;;;4971450;28;20033;-63
2022/06/28 00:35:24;;;;;;;2.17;1.70;;;;;;;;;;4970407;28;20048;-62
2022/06/28 00:37:49;;;;;;;1.48;1.35;;;;;;;;;;4970386;28;20437;-62
2022/06/28 00:40:14;;;;;;;2.58;1.45;;;;;;;;;;4969715;28;20432;-62
2022/06/28 00:42:40;;;;;;;2.30;1.60;;;;;;;;;;4970152;28;20391;-63
2022/06/28 00:45:07;;;;;;;2.42;1.48;;;;;;;;;;4962741;28;20325;-62
2022/06/28 00:47:33;;;;;;;1.75;1.60;;;;;;;;;;4970374;28;20395;-63
2022/06/28 00:49:59;;;;;;;3.55;1.60;;;;;;;;;;4970217;28;20048;-62
2022/06/28 00:52:24;;;;;;;1.58;1.40;;;;;;;;;;4970088;28;20037;-62
2022/06/28 00:54:50;;;;;;;1.95;1.50;;;;;;;;;;4971641;28;20501;-62
2022/06/28 00:57:15;;;;;;;1.88;1.55;;;;;;;;;;4970056;28;20521;-62
2022/06/28 00:59:41;;;;;;;3.47;1.50;;;;;;;;;;4967924;28;20329;-62
2022/06/28 01:02:06;;;;;;;2.15;1.58;;;;;;;;;;4963686;28;20056;-62
2022/06/28 01:04:32;;;;;;;2.20;1.65;;;;;;;;;;4950364;28;20457;-62
2022/06/28 01:06:57;;;;;;;2.72;1.70;;;;;;;;;;4949982;28;20428;-63
2022/06/28 01:09:22;;;;;;;2.58;1.67;;;;;;;;;;4949042;28;20384;-62
2022/06/28 01:11:48;;;;;;;2.50;1.55;;;;;;;;;;4950849;28;20440;-62
2022/06/28 01:14:13;;;;;;;3.72;1.70;;;;;;;;;;4949992;28;20133;-62
2022/06/28 01:16:39;;;;;;;2.85;1.40;;;;;;;;;;4950523;28;20057;-63
2022/06/28 01:19:05;;;;;;;2.35;1.55;;;;;;;;;;4950532;28;20387;-62
2022/06/28 01:21:32;;;;;;;2.10;1.67;;;;;;;;;;4949533;28;20590;-63
2022/06/28 01:23:58;;;;;;;1.77;1.30;;;;;;;;;;4950322;28;20029;-67
2022/06/28 01:26:23;;;;;;;2.58;1.75;;;;;;;;;;4932810;28;20426;-62
2022/06/28 01:28:50;;;;;;;1.75;1.42;;;;;;;;;;4950083;28;20392;-62
2022/06/28 01:31:20;;;;;;;2.67;1.58;;;;;;;;;;4949983;28;20172;-64
2022/06/28 01:33:46;;;;;;;2.03;1.55;;;;;;;;;;4950462;28;20084;-62
2022/06/28 01:36:12;;;;;;;2.53;1.70;;;;;;;;;;4950687;28;20034;-62
2022/06/28 01:38:39;;;;;;;2.75;1.70;;;;;;;;;;4950318;28;20448;-62
2022/06/28 01:41:05;;;;;;;3.33;1.85;;;;;;;;;;4932392;28;20026;-62
2022/06/28 01:43:34;;;;;;;2.08;1.67;;;;;;;;;;4950308;28;20053;-62
2022/06/28 01:46:03;;;;;;;2.00;1.42;;;;;;;;;;4951225;28;20428;-62
2022/06/28 01:48:28;;;;;;;;;;;;;;;;;;4951076;28;20052;-62
2022/06/28 01:50:54;;;;;;;2.70;1.52;;;;;;;;;;4951057;28;19913;-62
2022/06/28 01:53:20;;;;;;;3.03;1.75;;;;;;;;;;4950848;28;20092;-63
2022/06/28 01:55:46;;;;;;;2.28;1.60;;;;;;;;;;4949523;28;20504;-62
2022/06/28 01:58:11;;;;;;;2.35;1.55;;;;;;;;;;4949198;28;20486;-62
2022/06/28 02:00:37;;;;;;;3.55;1.77;;;;;;;;;;4950192;28;20053;-62
2022/06/28 02:03:03;;;;;;;2.60;1.95;;;;;;;;;;4949396;28;20026;-62
2022/06/28 02:05:30;;;;;;;2.17;1.45;;;;;;;;;;4950165;28;20454;-62
2022/06/28 02:07:55;;;;;;;2.22;1.60;;;;;;;;;;4949897;28;20535;-62
2022/06/28 02:10:21;;;;;;;2.00;1.50;;;;;;;;;;4951475;28;20380;-62
2022/06/28 02:12:47;;;;;;;2.55;1.73;;;;;;;;;;4950667;28;20440;-62
2022/06/28 02:15:13;;;;;;;1.80;1.60;;;;;;;;;;4949541;28;20104;-62
2022/06/28 02:17:40;;;;;;;2.60;1.80;;;;;;;;;;4949522;28;20084;-62
2022/06/28 02:20:07;;;;;;;4.95;1.83;;;;;;;;;;4954410;28;20104;-62
2022/06/28 02:22:32;;;;;;;1.60;1.40;;;;;;;;;;4968564;28;20452;-63
2022/06/28 02:24:58;;;;;;;2.85;1.85;;;;;;;;;;4968280;28;20555;-62
2022/06/28 02:27:23;;;;;;;2.80;1.77;;;;;;;;;;4969167;28;20463;-62
2022/06/28 02:29:49;;;;;;;2.95;1.90;;;;;;;;;;4968845;28;20422;-63
2022/06/28 02:32:14;;;;;;;2.47;1.65;;;;;;;;;;4972079;28;20439;-62
2022/06/28 02:40:27;;;;;;;2.72;1.67;;;;;;;;;;4974114;28;20508;-62
2022/06/28 02:42:57;;;;;;;2.60;1.90;;;;;;;;;;4973104;28;20535;-62
2022/06/28 02:45:24;;;;;;;2.28;1.80;;;;;;;;;;4973086;28;20321;-62
2022/06/28 02:47:50;;;;;;;2.40;1.70;;;;;;;;;;4972381;28;20458;-67
2022/06/28 02:50:17;;;;;;;2.40;1.58;;;;;;;;;;4972617;28;20483;-62
2022/06/28 02:52:43;;;;;;;2.03;1.58;;;;;;;;;;4972337;28;20356;-62
2022/06/28 02:55:09;;;;;;;3.33;1.70;;;;;;;;;;4954399;28;20053;-62
2022/06/28 02:57:36;;;;;;;3.13;1.80;;;;;;;;;;4971885;28;20440;-62
2022/06/28 03:00:07;;;;;;;2.60;1.73;;;;;;;;;;4972304;28;20488;-62
2022/06/28 03:02:34;;;;;;;2.08;1.85;;;;;;;;;;4971553;28;20371;-62
2022/06/28 03:05:00;;;;;;;2.38;1.70;;;;;;;;;;4971951;28;20416;-62
2022/06/28 03:07:25;;;;;;;1.50;1.40;;;;;;;;;;4974024;28;20356;-62
2022/06/28 03:09:50;;;;;;;3.65;1.95;;;;;;;;;;4972134;28;20030;-62
2022/06/28 03:12:16;;;;;;;2.00;1.70;;;;;;;;;;4971475;28;20491;-62
2022/06/28 03:14:41;;;;;;;3.47;1.50;;;;;;;;;;4972716;28;20515;-62
2022/06/28 03:17:06;;;;;;;2.85;2.38;;;;;;;;;;4971157;28;20428;-62
2022/06/28 03:19:32;;;;;;;3.67;2.08;;;;;;;;;;4972130;28;20348;-62
2022/06/28 03:21:57;;;;;;;1.90;1.70;;;;;;;;;;4971245;28;20401;-62
2022/06/28 03:24:22;;;;;;;3.35;1.73;;;;;;;;;;4971193;28;20447;-62
2022/06/28 03:26:48;;;;;;;1.70;1.60;;;;;;;;;;4971281;28;20033;-62
2022/06/28 03:29:13;;;;;;;2.28;1.83;;;;;;;;;;4971253;28;20371;-62
2022/06/28 03:31:39;;;;;;;1.63;1.50;;;;;;;;;;4970943;28;20355;-62
2022/06/28 03:34:04;;;;;;;2.95;1.60;;;;;;;;;;4971234;28;20368;-62
2022/06/28 03:36:29;;;;;;;3.33;1.90;;;;;;;;;;4970866;28;20432;-62
2022/06/28 03:38:55;;;;;;;2.35;1.58;;;;;;;;;;4970869;28;20048;-62
2022/06/28 03:41:23;;;;;;;2.35;1.60;;;;;;;;;;4972933;28;20463;-62
2022/06/28 03:43:50;;;;;;;2.67;1.95;;;;;;;;;;4970085;28;20459;-62
2022/06/28 03:46:15;;;;;;;2.22;1.70;;;;;;;;;;4970484;28;20569;-62
2022/06/28 03:48:42;;;;;;;1.92;1.70;;;;;;;;;;4970760;28;20428;-62
2022/06/28 03:51:07;;;;;;;2.80;2.40;;;;;;;;;;4970896;28;20354;-62
2022/06/28 03:53:33;;;;;;;2.47;1.98;;;;;;;;;;4970634;28;20336;-62
2022/06/28 03:55:58;;;;;;;1.77;1.45;;;;;;;;;;4970513;28;20500;-66
2022/06/28 03:58:24;;;;;;;4.18;2.08;;;;;;;;;;4970837;28;20104;-62
2022/06/28 04:00:49;;;;;;;1.83;1.52;;;;;;;;;;4971096;28;20048;-63
2022/06/28 04:03:14;;;;;;;2.58;1.90;;;;;;;;;;4970083;28;20355;-62
2022/06/28 04:05:40;;;;;;;3.65;1.70;;;;;;;;;;4971112;28;20454;-62
2022/06/28 04:08:05;;;;;;;2.00;1.48;;;;;;;;;;4971729;28;20444;-62
2022/06/28 04:10:31;;;;;;;3.10;1.70;;;;;;;;;;4971622;28;20021;-62
2022/06/28 04:12:56;;;;;;;2.35;2.00;;;;;;;;;;4970503;28;20035;-61
2022/06/28 04:15:21;;;;;;;4.90;1.80;;;;;;;;;;4970672;28;20611;-62
2022/06/28 04:17:47;;;;;;;3.22;1.83;;;;;;;;;;4970581;28;20336;-62
2022/06/28 04:20:13;;;;;;;2.22;1.67;;;;;;;;;;4969908;28;20451;-62
2022/06/28 04:22:38;;;;;;;3.85;1.88;;;;;;;;;;4970218;28;20561;-61
2022/06/28 04:25:04;;;;;;;2.20;1.70;;;;;;;;;;4972142;28;20061;-62
2022/06/28 04:27:29;;;;;;;3.03;2.40;;;;;;;;;;4970847;28;20436;-62
2022/06/28 04:29:54;;;;;;;3.17;1.90;;;;;;;;;;4970815;28;20444;-66
2022/06/28 04:32:20;;;;;;;5.05;2.00;;;;;;;;;;4970563;28;20321;-62
2022/06/28 04:34:45;;;;;;;3.63;2.10;;;;;;;;;;4970776;28;20341;-62
2022/06/28 04:37:11;;;;;;;5.70;2.25;;;;;;;;;;4970775;28;20456;-61
2022/06/28 04:39:36;;;;;;;2.70;1.70;;;;;;;;;;4970971;28;20468;-62
2022/06/28 04:42:02;;;;;;;2.15;1.70;;;;;;;;;;4970399;28;20332;-64
2022/06/28 04:44:28;;;;;;;4.22;2.05;;;;;;;;;;4970362;28;20021;-62
2022/06/28 04:46:54;;;;;;;4.32;1.85;;;;;;;;;;4970658;28;20416;-66
2022/06/28 04:49:19;;;;;;;2.88;1.90;;;;;;;;;;4970664;28;20104;-62
2022/06/28 04:51:44;;;;;;;4.47;2.40;;;;;;;;;;4970041;28;20030;-62
2022/06/28 04:54:10;;;;;;;2.95;1.85;;;;;;;;;;4969220;28;20518;-62
2022/06/28 04:56:35;;;;;;;3.13;1.90;;;;;;;;;;4953037;28;20420;-62
2022/06/28 04:59:01;;;;;;;2.30;1.90;;;;;;;;;;4968846;28;20494;-62
2022/06/28 05:01:26;;;;;;;6.97;1.92;;;;;;;;;;4970372;28;20324;-62
2022/06/28 05:03:51;;;;;;;2.65;1.90;;;;;;;;;;4969855;28;20091;-62
2022/06/28 05:06:17;;;;;;;3.10;2.20;;;;;;;;;;4969947;28;20341;-67
2022/06/28 05:08:42;;;;;;;2.13;1.45;;;;;;;;;;4971001;28;20484;-62
2022/06/28 05:11:08;;;;;;;2.15;1.95;;;;;;;;;;4970265;28;20452;-62
2022/06/28 05:13:34;;;;;;;2.67;1.92;;;;;;;;;;4969788;28;20037;-63
2022/06/28 05:15:59;;;;;;;3.05;1.85;;;;;;;;;;4969480;28;20352;-63
2022/06/28 05:18:24;;;;;;;2.75;1.77;;;;;;;;;;4969797;28;20499;-63
2022/06/28 05:20:50;;;;;;;3.08;2.00;;;;;;;;;;4969301;28;20440;-63
2022/06/28 05:23:15;;;;;;;2.63;1.90;;;;;;;;;;4969745;28;20049;-63
2022/06/28 05:25:40;;;;;;;3.70;2.17;;;;;;;;;;4969579;28;20471;-63
2022/06/28 05:28:06;;;;;;;3.95;2.00;;;;;;;;;;4969287;28;20052;-63
2022/06/28 05:30:31;;;;;;;2.03;1.80;;;;;;;;;;4969740;28;20033;-64
2022/06/28 05:32:57;;;;;;;3.25;1.80;;;;;;;;;;4968787;28;20029;-63
2022/06/28 05:35:22;;;;;;;3.15;2.10;;;;;;;;;;4969057;28;20341;-63
2022/06/28 05:37:48;;;;;;;2.65;1.90;;;;;;;;;;4970602;28;20423;-63
2022/06/28 05:40:13;;;;;;;4.13;1.80;;;;;;;;;;4969014;28;20454;-63
2022/06/28 05:42:38;;;;;;;2.78;1.98;;;;;;;;;;4951956;28;20038;-63
2022/06/28 05:45:04;;;;;;;2.88;1.83;;;;;;;;;;4970368;28;20336;-63
2022/06/28 05:47:30;;;;;;;2.53;1.98;;;;;;;;;;4969447;28;20436;-64
2022/06/28 05:49:56;;;;;;;2.30;1.52;;;;;;;;;;4969352;28;20435;-63
2022/06/28 05:52:21;;;;;;;2.10;1.48;;;;;;;;;;4969460;28;20487;-63
2022/06/28 05:54:46;;;;;;;2.17;1.80;;;;;;;;;;4968694;28;20186;-63
2022/06/28 05:57:12;;;;;;;2.65;1.88;;;;;;;;;;4969207;28;20333;-63
2022/06/28 05:59:37;;;;;;;2.65;1.70;;;;;;;;;;4968993;28;20441;-63
2022/06/28 06:02:03;;;;;;;2.35;1.77;;;;;;;;;;4968974;28;20355;-64
2022/06/28 06:04:28;;;;;;;1.70;1.40;;;;;;;;;;4969223;28;20025;-63
2022/06/28 06:06:54;;;;;;;2.60;1.85;;;;;;;;;;4971554;28;20026;-63
2022/06/28 06:09:20;;;;;;;2.63;1.83;;;;;;;;;;4973200;28;20388;-63
2022/06/28 06:11:47;;;;;;;3.28;2.00;;;;;;;;;;4972752;28;20099;-64
2022/06/28 06:14:14;;;;;;;3.85;1.85;;;;;;;;;;4972696;28;20455;-62
2022/06/28 06:16:39;;;;;;;2.60;1.88;;;;;;;;;;4972637;28;20110;-62
2022/06/28 06:19:04;;;;;;;2.25;1.75;;;;;;;;;;4972794;28;20037;-64
2022/06/28 06:21:30;;;;;;;3.45;1.50;;;;;;;;;;4971993;28;20048;-63
2022/06/28 06:23:55;;;;;;;2.72;1.90;;;;;;;;;;4973286;28;20047;-64
2022/06/28 06:26:20;;;;;;;2.67;1.50;;;;;;;;;;4972880;28;20493;-64
2022/06/28 06:28:46;;;;;;;3.33;2.25;;;;;;;;;;4972720;28;20442;-63
2022/06/28 06:31:12;;;;;;;1.98;1.70;;;;;;;;;;4972497;28;20094;-63
2022/06/28 06:33:38;;;;;;;2.97;2.03;;;;;;;;;;4972280;28;20116;-63
2022/06/28 06:36:03;;;;;;;2.92;1.80;;;;;;;;;;4972774;28;20052;-64
2022/06/28 06:38:29;;;;;;;2.30;1.77;;;;;;;;;;4955214;28;20444;-63
2022/06/28 06:40:59;;;;;;;2.55;1.80;;;;;;;;;;4974273;28;20114;-63
2022/06/28 06:43:26;;;;;;;2.83;1.75;;;;;;;;;;4972259;28;20447;-63
2022/06/28 06:45:52;;;;;;;1.95;1.45;;;;;;;;;;4972757;28;20410;-63
2022/06/28 06:48:17;;;;;;;2.45;1.90;;;;;;;;;;4972236;28;20383;-63
2022/06/28 06:50:42;;;;;;;2.95;1.80;;;;;;;;;;4972373;28;20154;-63
2022/06/28 06:53:10;;;;;;;2.63;1.70;;;;;;;;;;4972032;28;20345;-63
2022/06/28 06:55:36;;;;;;;3.28;2.00;;;;;;;;;;4972081;28;20347;-63
2022/06/28 06:58:01;;;;;;;3.13;1.90;;;;;;;;;;4972475;28;20022;-63
2022/06/28 07:00:26;;;;;;;3.00;2.00;;;;;;;;;;4972084;28;20386;-63
2022/06/28 07:02:52;;;;;;;2.55;1.42;;;;;;;;;;4972330;28;20324;-63
2022/06/28 07:05:17;;;;;;;3.25;2.03;;;;;;;;;;4971908;28;20353;-63
2022/06/28 07:07:44;;;;;;;1.92;1.63;;;;;;;;;;4971961;28;20340;-63
2022/06/28 07:10:09;;;;;;;3.22;1.98;;;;;;;;;;4971783;28;20533;-62
2022/06/28 07:12:34;;;;;;;1.83;1.58;;;;;;;;;;4971458;28;20510;-63
2022/06/28 07:15:00;;;;;;;2.67;1.52;;;;;;;;;;4972888;28;20320;-63
2022/06/28 07:17:25;;;;;;;2.47;1.48;;;;;;;;;;4970739;28;20450;-63
2022/06/28 07:19:51;;;;;;;2.17;1.70;;;;;;;;;;4971717;28;20523;-63
2022/06/28 07:22:16;;;;;;;2.47;1.58;;;;;;;;;;4970953;28;20464;-67
2022/06/28 07:24:41;;;;;;;3.13;1.98;;;;;;;;;;4971805;28;20041;-63
2022/06/28 07:27:07;;;;;;;4.57;2.10;;;;;;;;;;4971654;28;20444;-64
2022/06/28 07:29:32;;;;;;;3.85;2.28;;;;;;;;;;4973059;28;20452;-63
2022/06/28 07:31:58;;;;;;;2.10;1.63;;;;;;;;;;4972542;28;20156;-63
2022/06/28 07:34:23;;;;;;;2.53;1.70;;;;;;;;;;4954742;28;20352;-65
2022/06/28 07:36:49;;;;;;;3.85;1.98;;;;;;;;;;4971580;28;20440;-63
2022/06/28 07:39:15;;;;;;;2.33;1.63;;;;;;;;;;4973074;28;20416;-63
2022/06/28 07:41:40;;;;;;;1.98;1.73;;;;;;;;;;4971094;28;20451;-63
2022/06/28 07:44:05;;;;;;;2.85;2.13;;;;;;;;;;4971419;28;20419;-63
2022/06/28 07:46:31;;;;;;;3.92;1.92;;;;;;;;;;4970766;28;20387;-63
2022/06/28 07:48:56;;;;;;;2.58;1.92;;;;;;;;;;4953894;28;20411;-63
2022/06/28 07:54:06;;;;;;;2.17;1.80;;;;;;;;;;4971751;28;20535;-63
2022/06/28 07:56:32;;;;;;;2.85;1.85;;;;;;;;;;4971190;28;20319;-63
2022/06/28 07:58:57;;;;;;;3.38;2.17;;;;;;;;;;4971040;28;20387;-63
2022/06/28 08:01:23;;;;;;;2.47;1.80;;;;;;;;;;4970818;28;20329;-63
2022/06/28 08:03:48;;;;;;;1.90;1.70;;;;;;;;;;4970633;28;20423;-63
2022/06/28 08:06:14;;;;;;;1.75;1.63;;;;;;;;;;4971833;28;20416;-63
2022/06/28 08:08:40;;;;;;;2.03;1.58;;;;;;;;;;4971008;28;20498;-64
2022/06/28 08:11:05;;;;;;;4.00;1.80;;;;;;;;;;4970735;28;20506;-62
2022/06/28 08:13:31;;;;;;;4.10;1.70;;;;;;;;;;4970903;28;20421;-63
2022/06/28 08:15:58;;;;;;;1.92;1.65;;;;;;;;;;4970734;28;20372;-63
2022/06/28 08:18:23;;;;;;;3.25;2.03;;;;;;;;;;4970905;28;20132;-64
2022/06/28 08:20:49;;;;;;;2.70;2.00;;;;;;;;;;4970567;28;20448;-63
2022/06/28 08:23:14;;;;;;;3.35;1.80;;;;;;;;;;4970708;28;20519;-65
2022/06/28 08:25:42;;;;;;;2.65;1.85;;;;;;;;;;4970413;28;20104;-63
2022/06/28 08:28:08;;;;;;;2.15;1.73;;;;;;;;;;4970332;28;20486;-62
2022/06/28 08:30:34;;;;;;;1.98;1.73;;;;;;;;;;4970301;28;20395;-63
2022/06/28 08:32:59;;;;;;;2.80;2.15;;;;;;;;;;4970451;28;20499;-63
2022/06/28 08:35:24;;;;;;;2.55;1.77;;;;;;;;;;4971267;28;20432;-63
2022/06/28 08:37:52;;;;;;;2.90;1.93;;;;;;;;;;4970574;28;20449;-63
2022/06/28 08:40:21;;;;;;;3.00;1.88;;;;;;;;;;4971276;28;20664;-63
2022/06/28 08:42:53;;;;;;;1.67;1.45;;;;;;;;;;4970507;28;20459;-63
2022/06/28 08:45:20;;;;;;;4.20;1.92;;;;;;;;;;4952499;28;20048;-63
2022/06/28 08:47:49;;;;;;;2.28;1.73;;;;;;;;;;4972178;28;20025;-63
2022/06/28 08:50:20;;;;;;;2.20;1.73;;;;;;;;;;4970421;28;20436;-64
2022/06/28 08:52:47;;;;;;;3.30;2.00;;;;;;;;;;4952484;28;20424;-63
2022/06/28 08:55:13;;;;;;;2.28;1.70;;;;;;;;;;4952343;28;20439;-63
2022/06/28 08:57:41;;;;;;;2.10;1.65;;;;;;;;;;4970102;28;20353;-64
2022/06/28 09:00:07;;;;;;;2.42;1.67;;;;;;;;;;4970144;28;20029;-63
2022/06/28 09:02:32;;;;;;;2.17;1.80;;;;;;;;;;4970259;28;20345;-62
2022/06/28 09:04:59;;;;;;;2.53;1.55;;;;;;;;;;4953176;28;20335;-63
2022/06/28 09:07:24;;;;;;;2.80;1.60;;;;;;;;;;4970458;28;20363;-63
2022/06/28 09:09:51;;;;;;;3.10;1.83;;;;;;;;;;4969853;28;20356;-63
2022/06/28 09:12:17;;;;;;;2.47;1.90;;;;;;;;;;4969773;28;20325;-63
2022/06/28 09:14:42;;;;;;;2.88;1.80;;;;;;;;;;4969922;28;20436;-64
2022/06/28 09:17:28;;;;;;;2.00;1.50;;;;;;;;;;4968374;28;20514;-62
2022/06/28 09:19:59;;;;;;;2.22;1.60;;;;;;;;;;4970333;28;20419;-62
2022/06/28 09:22:32;;;;;;;2.20;1.75;;;;;;;;;;4970235;28;20351;-62
2022/06/28 09:24:59;;;;;;;3.65;1.65;;;;;;;;;;4969858;28;20360;-63
2022/06/28 09:27:33;;;;;;;2.03;1.83;;;;;;;;;;4970274;28;20501;-62
2022/06/28 09:30:00;;;;;;;2.50;1.55;;;;;;;;;;4969859;28;20391;-63
2022/06/28 09:32:31;;;;;;;1.67;1.58;;;;;;;;;;4969988;28;20455;-63
2022/06/28 09:34:58;;;;;;;3.40;1.40;;;;;;;;;;4969955;28;20340;-63
2022/06/28 09:37:47;;;;;;;2.20;1.70;;;;;;;;;;4969620;28;20400;-62
2022/06/28 09:40:22;;;;;;;3.10;2.03;;;;;;;;;;4971053;28;20025;-63
2022/06/28 09:43:12;;;;;;;2.22;1.52;;;;;;;;;;4951503;28;20465;-65
2022/06/28 09:45:40;;;;;;;3.05;1.60;;;;;;;;;;4969398;28;20408;-63
2022/06/28 09:48:06;;;;;;;1.92;1.40;;;;;;;;;;4969777;28;20458;-63
2022/06/28 09:50:35;;;;;;;3.00;1.80;;;;;;;;;;4969527;28;20358;-62
2022/06/28 09:53:01;;;;;;;3.58;1.88;;;;;;;;;;4970403;28;20494;-63
2022/06/28 09:55:29;;;;;;;4.85;1.52;;;;;;;;;;4969459;28;20455;-63
2022/06/28 09:57:55;;;;;;;2.70;1.60;;;;;;;;;;4969907;28;20417;-65
2022/06/28 10:00:21;;;;;;;2.30;1.75;;;;;;;;;;4969199;28;20574;-63
2022/06/28 10:02:47;;;;;;;2.80;1.60;;;;;;;;;;4970952;28;20439;-63
2022/06/28 10:05:14;;;;;;;3.67;1.95;;;;;;;;;;4969426;28;20048;-63
2022/06/28 10:07:40;;;;;;;2.55;1.58;;;;;;;;;;4969380;28;20537;-63
2022/06/28 10:10:08;;;;;;;2.33;1.55;;;;;;;;;;4969395;28;20415;-63
2022/06/28 10:15:19;;;;;;;3.03;1.90;;;;;;;;;;4968860;28;20123;-64
2022/06/28 10:18:04;;;;;;;2.78;1.67;;;;;;;;;;4969738;28;20424;-63
2022/06/28 10:20:35;;;;;;;3.35;2.10;;;;;;;;;;4951708;28;20033;-63
2022/06/28 10:23:19;;;;;;;1.92;1.50;;;;;;;;;;4969014;28;20472;-63
2022/06/28 10:26:20;;;;;;;2.65;1.80;;;;;;;;;;4969271;28;20022;-64
2022/06/28 10:28:46;;;;;;;2.85;2.13;;;;;;;;;;4968828;28;20589;-63
2022/06/28 10:31:23;;;;;;;1.75;1.52;;;;;;;;;;4969474;28;20424;-65
2022/06/28 10:33:53;;;;;;;2.13;1.75;;;;;;;;;;4970393;28;20462;-63
2022/06/28 10:36:21;;;;;;;2.00;1.60;;;;;;;;;;4969350;28;20344;-63
2022/06/28 10:39:19;;;;;;;3.25;1.90;;;;;;;;;;4970082;28;20030;-63
2022/06/28 10:41:47;;;;;;;2.85;1.92;;;;;;;;;;4957217;28;20132;-63
2022/06/28 10:44:27;;;;;;;2.63;1.80;;;;;;;;;;4968776;28;20432;-63
2022/06/28 10:47:03;;;;;;;3.63;2.22;;;;;;;;;;4970358;28;20382;-63
2022/06/28 10:49:46;;;;;;;3.95;2.20;;;;;;;;;;4951083;28;20375;-64
2022/06/28 10:52:14;;;;;;;3.53;2.13;;;;;;;;;;4970344;28;20372;-62
2022/06/28 10:55:03;;;;;;;4.03;2.40;;;;;;;;;;4974342;28;20069;-63
2022/06/28 10:57:40;;;;;;;3.88;2.30;;;;;;;;;;4963072;28;20516;-62
2022/06/28 11:00:09;;;;;;;2.28;1.95;;;;;;;;;;4973182;28;20463;-63
2022/06/28 11:02:49;;;;;;;4.97;2.35;;;;;;;;;;4972751;28;20527;-62
2022/06/28 11:05:14;;;;;;;3.55;2.10;;;;;;;;;;4973762;28;20478;-62
2022/06/28 11:07:40;;;;;;;3.42;2.15;;;;;;;;;;4972295;28;20507;-62
2022/06/28 11:10:15;;;;;;;2.67;2.42;;;;;;;;;;4954801;28;20379;-63
2022/06/28 11:12:41;;;;;;;6.35;2.20;;;;;;;;;;4973024;28;20348;-63
2022/06/28 11:15:36;;;;;;;4.82;2.30;;;;;;;;;;4971885;28;20506;-62
2022/06/28 11:18:02;;;;;;;4.70;2.28;;;;;;;;;;4972090;28;20578;-62
2022/06/28 11:20:30;;;;;;;4.70;2.53;;;;;;;;;;4971941;28;20356;-62
2022/06/28 11:22:55;;;;;;;4.15;2.65;;;;;;;;;;4972026;28;20467;-63
2022/06/28 11:25:23;;;;;;;4.35;2.35;;;;;;;;;;4972046;28;20375;-62
2022/06/28 11:27:53;;;;;;;9.18;2.30;;;;;;;;;;4973039;28;20435;-62
2022/06/28 11:30:20;;;;;;;5.03;2.40;;;;;;;;;;4971845;28;20428;-62
2022/06/28 11:32:49;;;;;;;6.63;2.58;;;;;;;;;;4971693;28;20428;-63
2022/06/28 11:35:15;;;;;;;;;;;;;;;;;;4972542;28;20474;-62
2022/06/28 11:37:49;;;;;;;3.85;2.40;;;;;;;;;;4973580;28;20323;-63
2022/06/28 11:40:17;;;;;;;6.85;2.63;;;;;;;;;;4971622;28;20373;-63
2022/06/28 11:42:43;;;;;;;3.40;2.27;;;;;;;;;;4971633;28;20344;-63
2022/06/28 11:45:14;;;;;;;3.28;2.40;;;;;;;;;;4971495;28;20041;-63
2022/06/28 11:47:44;;;;;;;4.85;2.45;;;;;;;;;;4953782;28;20367;-63
2022/06/28 11:50:11;;;;;;;4.47;2.63;;;;;;;;;;4954191;28;20462;-62
2022/06/28 11:52:57;;;;;;;2.92;2.33;;;;;;;;;;4971218;28;20370;-63
2022/06/28 11:55:42;;;;;;;4.53;2.58;;;;;;;;;;4970816;28;20483;-63
2022/06/28 11:58:11;;;;;;;3.25;2.22;;;;;;;;;;4971645;28;20083;-63
2022/06/28 12:00:37;;;;;;;6.15;2.80;;;;;;;;;;4971334;28;20360;-62
2022/06/28 12:03:04;;;;;;;4.60;2.83;;;;;;;;;;4971470;28;20425;-63
2022/06/28 12:05:35;;;;;;;3.30;2.33;;;;;;;;;;4971646;28;20033;-63
2022/06/28 12:08:01;;;;;;;4.65;2.63;;;;;;;;;;4971327;28;20418;-62
2022/06/28 12:10:32;;;;;;;5.25;2.70;;;;;;;;;;4971317;28;20619;-63
2022/06/28 12:12:59;;;;;;;3.33;2.47;;;;;;;;;;4970697;28;20412;-62
2022/06/28 12:15:25;;;;;;;3.25;2.30;;;;;;;;;;4972941;28;20420;-63
2022/06/28 12:17:51;;;;;;;7.20;2.70;;;;;;;;;;4953741;28;20136;-67
2022/06/28 12:20:17;;;;;;;2.75;2.20;;;;;;;;;;4971052;28;20438;-63
2022/06/28 12:22:43;;;;;;;3.35;2.40;;;;;;;;;;4971184;28;20442;-63
2022/06/28 12:25:10;;;;;;;3.90;2.75;;;;;;;;;;4952978;28;20482;-63
2022/06/28 12:27:36;;;;;;;4.05;3.00;;;;;;;;;;4971350;28;20421;-63
2022/06/28 12:30:06;;;;;;;2.97;2.65;;;;;;;;;;4970676;28;20121;-64
2022/06/28 12:32:32;;;;;;;4.72;2.88;;;;;;;;;;4971397;28;20286;-63
2022/06/28 12:35:03;;;;;;;2.83;2.38;;;;;;;;;;4970340;28;20344;-65
2022/06/28 12:37:29;;;;;;;4.10;2.72;;;;;;;;;;4970404;28;20325;-62
2022/06/28 12:39:56;;;;;;;5.88;2.88;;;;;;;;;;4971681;28;20048;-63
2022/06/28 12:42:22;;;;;;;3.85;2.42;;;;;;;;;;4970401;28;20356;-64
2022/06/28 12:44:48;;;;;;;3.95;2.58;;;;;;;;;;4970564;28;20316;-65
2022/06/28 12:47:13;;;;;;;4.28;2.72;;;;;;;;;;4970298;28;20329;-63
2022/06/28 12:49:39;;;;;;;3.72;2.60;;;;;;;;;;4970369;28;20113;-63
2022/06/28 12:52:05;;;;;;;5.03;2.47;;;;;;;;;;4970789;28;20328;-62
2022/06/28 12:54:30;;;;;;;4.55;2.70;;;;;;;;;;4970338;28;20452;-63
2022/06/28 12:56:56;;;;;;;4.13;2.58;;;;;;;;;;4952464;28;20044;-62
2022/06/28 12:59:21;;;;;;;2.65;2.30;;;;;;;;;;4971433;28;20579;-63
2022/06/28 13:01:47;;;;;;;4.38;2.78;;;;;;;;;;4970877;28;20498;-63
2022/06/28 13:04:14;;;;;;;3.22;2.80;;;;;;;;;;4970714;28;20414;-63
2022/06/28 13:06:42;;;;;;;3.60;2.90;;;;;;;;;;4970058;28;20048;-63
2022/06/28 13:09:08;;;;;;;4.72;2.22;;;;;;;;;;4970456;28;20433;-63
2022/06/28 13:11:34;;;;;;;3.03;2.33;;;;;;;;;;4969996;28;20413;-63
2022/06/28 13:13:59;;;;;;;3.30;2.47;;;;;;;;;;4969916;28;20467;-63
2022/06/28 13:16:26;;;;;;;3.42;2.67;;;;;;;;;;4969016;28;20026;-64
2022/06/28 13:18:51;;;;;;;6.22;2.70;;;;;;;;;;4970118;28;20459;-62
2022/06/28 13:21:17;;;;;;;4.47;2.42;;;;;;;;;;4970155;28;20437;-63
2022/06/28 13:23:42;;;;;;;3.03;2.50;;;;;;;;;;4970039;28;20460;-62
2022/06/28 13:26:08;;;;;;;2.90;2.20;;;;;;;;;;4969776;28;20340;-63
2022/06/28 13:28:33;;;;;;;4.28;2.50;;;;;;;;;;4970149;28;20339;-63
2022/06/28 13:30:59;;;;;;;4.18;2.70;;;;;;;;;;4970474;28;20099;-62
2022/06/28 13:33:24;;;;;;;3.22;2.28;;;;;;;;;;4970171;28;20034;-63
2022/06/28 13:35:50;;;;;;;3.15;2.55;;;;;;;;;;4969579;28;20475;-63
2022/06/28 13:38:15;;;;;;;3.20;2.45;;;;;;;;;;4969308;28;20452;-63
2022/06/28 13:40:43;;;;;;;2.80;2.42;;;;;;;;;;4969428;28;20420;-62
2022/06/28 13:45:53;;;;;;;3.65;2.45;;;;;;;;;;4970380;28;20502;-62
2022/06/28 13:48:19;;;;;;;3.13;2.70;;;;;;;;;;4969867;28;20448;-63
2022/06/28 13:50:44;;;;;;;4.38;3.10;;;;;;;;;;4969428;28;20052;-62
2022/06/28 13:53:12;;;;;;;4.07;2.50;;;;;;;;;;4969432;28;20454;-62
2022/06/28 13:55:38;;;;;;;2.50;2.27;;;;;;;;;;4969674;28;20363;-63
2022/06/28 13:58:04;;;;;;;3.20;2.17;;;;;;;;;;4969740;28;20033;-63
2022/06/28 14:00:31;;;;;;;3.38;2.78;;;;;;;;;;4969253;28;20468;-63
2022/06/28 14:02:56;;;;;;;3.97;2.40;;;;;;;;;;4970008;28;20470;-62
2022/06/28 14:05:22;;;;;;;3.63;2.90;;;;;;;;;;4969152;28;20452;-62
2022/06/28 14:07:47;;;;;;;5.57;2.60;;;;;;;;;;4969474;28;20392;-62
2022/06/28 14:10:13;;;;;;;3.85;2.80;;;;;;;;;;4969497;28;20098;-62
2022/06/28 14:12:38;;;;;;;3.00;2.72;;;;;;;;;;4969617;28;20323;-62
2022/06/28 14:15:04;;;;;;;3.47;2.40;;;;;;;;;;4969841;28;20420;-62
2022/06/28 14:17:30;;;;;;;3.85;2.60;;;;;;;;;;4969464;28;20034;-63
2022/06/28 14:19:55;;;;;;;3.75;2.63;;;;;;;;;;4970575;28;20418;-62
2022/06/28 14:22:24;;;;;;;5.50;3.50;;;;;;;;;;4969055;28;20081;-63
2022/06/28 14:24:50;;;;;;;2.95;2.33;;;;;;;;;;4952914;28;20350;-62
2022/06/28 14:27:16;;;;;;;2.97;2.42;;;;;;;;;;4970343;28;20494;-62
2022/06/28 14:29:42;;;;;;;3.17;2.47;;;;;;;;;;4972740;28;20558;-63
2022/06/28 14:32:08;;;;;;;3.70;2.50;;;;;;;;;;4972776;28;20095;-62
2022/06/28 14:34:34;;;;;;;3.97;2.40;;;;;;;;;;4973021;28;20329;-62
2022/06/28 14:36:59;;;;;;;4.53;2.50;;;;;;;;;;4974527;28;20428;-62
2022/06/28 14:39:25;;;;;;;3.88;2.40;;;;;;;;;;4972879;28;20383;-62
2022/06/28 14:41:51;;;;;;;4.28;2.75;;;;;;;;;;4973249;28;20426;-63
2022/06/28 14:44:16;;;;;;;3.45;2.25;;;;;;;;;;4973196;28;20328;-65
2022/06/28 14:46:41;;;;;;;2.75;2.30;;;;;;;;;;4972631;28;20530;-63
2022/06/28 14:49:07;;;;;;;3.20;2.42;;;;;;;;;;4972786;28;20314;-63
2022/06/28 14:51:33;;;;;;;6.35;2.38;;;;;;;;;;4972949;28;20372;-63
2022/06/28 14:53:59;;;;;;;3.17;2.38;;;;;;;;;;4972910;28;20511;-62
2022/06/28 14:56:24;;;;;;;4.82;2.40;;;;;;;;;;4972412;28;20363;-62
2022/06/28 14:58:50;;;;;;;4.03;2.33;;;;;;;;;;4972543;28;20383;-62